Terminal Aerodrome Forecast
Issued by NWS

Home | Current Version | Previous Version | Text Only | Print | Product List | Glossary On
Versions: 1 2 3 4 5 6 7 8 9 10 11 12 13 14 15 16 17 18 19 20 21 22 23 24 25 26 27 28 29
000
FTUS43 KILX 301744
TAFCMI
TAF
KCMI 301744Z 3018/3118 31007KT P6SM VCSH BKN015
      TEMPO 3018/3020 SCT015 BKN025
     FM302000 30006KT P6SM VCTS SCT025 BKN035CB
     FM310200 VRB04KT P6SM SCT035
     FM310900 VRB03KT 3SM BR SCT008
      TEMPO 3109/3113 1SM BR BKN005
     FM311400 34005KT P6SM SCT015=

USA.gov is the U.S. government's official web portal to all federal, state and local government web resources and services.